Time;durP1;ratioP1;P1;durP2;ratioP2;P2;SDS_P1;SDS_P2;PMS_P1;PMS_P2;Temp;Humidity;BMP_temperature;BMP_pressure;BME280_temperature;BME280_humidity;BME280_pressure;Samples;Min_cycle;Max_cycle;Signal;HPM_P1;HPM_P2
2022/09/30 00:00:06;;;;;;;11.15;8.35;;;;;;;18.04;100.00;99613.50;5071030;28;20038;-72
2022/09/30 00:02:32;;;;;;;14.48;8.30;;;;;;;17.87;100.00;99606.06;5070441;28;20478;-75
2022/09/30 00:04:57;;;;;;;12.43;8.15;;;;;;;17.89;100.00;99573.34;5069098;28;20089;-73
2022/09/30 00:07:22;;;;;;;11.43;8.02;;;;;;;18.13;100.00;99661.81;5069499;28;20086;-73
2022/09/30 00:09:49;;;;;;;12.88;8.43;;;;;;;18.20;100.00;99645.06;5070874;28;20032;-72
2022/09/30 00:12:14;;;;;;;10.45;8.38;;;;;;;18.07;100.00;99661.38;5086268;28;20546;-73
2022/09/30 00:14:40;;;;;;;12.05;8.63;;;;;;;17.62;100.00;99574.28;5070755;28;20025;-72
2022/09/30 00:17:05;;;;;;;13.10;8.68;;;;;;;18.33;100.00;99664.84;5071074;28;20546;-72
2022/09/30 00:19:31;;;;;;;10.98;8.50;;;;;;;17.64;100.00;99645.28;5070885;28;20380;-72
2022/09/30 00:21:56;;;;;;;11.82;8.80;;;;;;;17.62;100.00;99589.72;5071456;28;20056;-72
2022/09/30 00:24:21;;;;;;;12.18;9.07;;;;;;;17.77;100.00;99632.44;5070477;28;20487;-73
2022/09/30 00:26:47;;;;;;;11.63;9.00;;;;;;;18.33;100.00;99700.91;5070377;28;20162;-73
2022/09/30 00:29:12;;;;;;;15.63;9.45;;;;;;;18.10;100.00;99699.81;5070451;28;20031;-72
2022/09/30 00:31:38;;;;;;;14.45;8.57;;;;;;;17.71;100.00;99651.66;5071768;28;20375;-72
2022/09/30 00:34:06;;;;;;;11.10;8.95;;;;;;;18.05;100.00;99707.81;5074852;28;20024;-72
2022/09/30 00:36:47;;;;;;;11.55;9.25;;;;;;;18.12;100.00;99713.41;5073559;28;20066;-72
2022/09/30 00:39:20;;;;;;;11.98;8.68;;;;;;;18.31;100.00;99711.28;5074466;28;20024;-73
2022/09/30 00:41:48;;;;;;;12.27;9.77;;;;;;;17.88;100.00;99686.63;5074447;28;20086;-72
2022/09/30 00:44:42;;;;;;;13.15;9.43;;;;;;;18.16;100.00;99725.94;5074095;28;20028;-74
2022/09/30 00:47:33;;;;;;;13.00;9.65;;;;;;;17.95;100.00;99717.00;5074336;28;20036;-73
2022/09/30 00:50:08;;;;;;;11.05;8.70;;;;;;;17.51;100.00;99656.41;5078863;28;20040;-73
2022/09/30 00:52:34;;;;;;;14.25;9.50;;;;;;;17.85;100.00;99718.50;5073751;28;20032;-73
2022/09/30 00:55:03;;;;;;;14.07;9.23;;;;;;;17.42;100.00;99665.47;5074406;28;20039;-73
2022/09/30 00:57:29;;;;;;;14.57;8.73;;;;;;;17.35;100.00;99665.00;5089605;28;20076;-73
2022/09/30 00:59:55;;;;;;;14.07;9.45;;;;;;;17.72;100.00;99715.06;5073876;28;20529;-73
2022/09/30 01:02:20;;;;;;;12.40;8.98;;;;;;;17.20;100.00;99647.94;5073851;28;20025;-74
2022/09/30 01:04:49;;;;;;;12.18;9.27;;;;;;;17.85;100.00;99727.97;5072453;28;20119;-75
2022/09/30 01:07:14;;;;;;;11.23;9.73;;;;;;;17.73;100.00;99734.69;5073583;28;20029;-75
2022/09/30 01:09:42;;;;;;;10.73;8.57;;;;;;;17.36;100.00;99735.22;5072674;28;20031;-74
2022/09/30 01:12:12;;;;;;;13.38;10.38;;;;;;;17.57;100.00;99726.25;5073706;28;20624;-75
2022/09/30 01:14:39;;;;;;;15.38;9.55;;;;;;;17.29;100.00;99741.66;5072218;28;20445;-74
2022/09/30 01:17:09;;;;;;;15.15;9.45;;;;;;;17.20;100.00;99680.53;5072315;28;20036;-74
2022/09/30 01:19:59;;;;;;;10.60;9.50;;;;;;;17.32;100.00;99736.31;5073677;28;20059;-75
2022/09/30 01:22:53;;;;;;;14.52;9.60;;;;;;;16.76;100.00;99690.84;5089318;28;20036;-75
2022/09/30 01:25:49;;;;;;;12.70;9.15;;;;;;;17.16;100.00;99741.53;5073265;28;20101;-74
2022/09/30 01:28:29;;;;;;;12.23;9.23;;;;;;;17.10;100.00;99749.63;5088824;28;20032;-74
2022/09/30 01:31:22;;;;;;;10.23;9.18;;;;;;;17.33;100.00;99732.84;5073245;28;20043;-74
2022/09/30 01:34:12;;;;;;;11.32;9.25;;;;;;;16.78;100.00;99677.91;5073003;28;20112;-72
2022/09/30 01:36:45;;;;;;;11.55;8.88;;;;;;;16.54;100.00;99654.47;5073439;28;20032;-74
2022/09/30 01:39:34;;;;;;;11.38;9.00;;;;;;;17.05;100.00;99751.63;5073484;28;20109;-72
2022/09/30 01:42:09;;;;;;;11.27;8.60;;;;;;;16.96;100.00;99705.91;5088575;28;20423;-72
2022/09/30 01:44:57;;;;;;;10.90;9.38;;;;;;;16.89;100.00;99744.88;5072541;28;20050;-72
2022/09/30 01:47:30;;;;;;;11.45;9.00;;;;;;;16.35;100.00;99630.75;5073261;28;20029;-71
2022/09/30 01:50:17;;;;;;;10.18;9.18;;;;;;;16.79;100.00;99731.75;5073334;28;20032;-73
2022/09/30 01:52:55;;;;;;;11.95;9.43;;;;;;;16.63;100.00;99736.09;5072893;28;20035;-75
2022/09/30 01:55:24;;;;;;;12.68;10.73;;;;;;;16.82;100.00;99739.28;5072524;28;20473;-73
2022/09/30 01:57:53;;;;;;;14.48;10.52;;;;;;;16.69;100.00;99740.91;5072700;28;20104;-73
2022/09/30 02:00:20;;;;;;;13.63;10.90;;;;;;;16.55;100.00;99688.69;5071487;28;20047;-73
2022/09/30 02:02:50;;;;;;;14.50;9.95;;;;;;;16.91;100.00;99679.69;5071470;28;20115;-73
2022/09/30 02:05:40;;;;;;;15.10;9.65;;;;;;;17.06;100.00;99695.94;5071387;28;20075;-73
2022/09/30 02:08:15;;;;;;;12.90;10.32;;;;;;;17.08;100.00;99689.78;5071247;28;20040;-73
2022/09/30 02:10:56;;;;;;;12.90;9.95;;;;;;;17.37;100.00;99754.06;5072456;28;20495;-72
2022/09/30 02:13:36;;;;;;;15.43;10.13;;;;;;;16.76;100.00;99660.03;5072914;28;20024;-72
2022/09/30 02:16:14;;;;;;;12.45;10.18;;;;;;;17.15;100.00;99749.34;5067825;28;20044;-73
2022/09/30 02:18:46;;;;;;;15.15;10.43;;;;;;;16.93;100.00;99739.50;5059762;28;20064;-73
2022/09/30 02:21:18;;;;;;;13.70;10.75;;;;;;;16.96;100.00;99754.72;5072614;28;20617;-73
2022/09/30 02:23:46;;;;;;;14.05;10.50;;;;;;;16.79;100.00;99690.69;5072516;28;20494;-74
2022/09/30 02:26:20;;;;;;;16.27;10.85;;;;;;;17.14;100.00;99763.09;5073008;28;20115;-73
2022/09/30 02:28:52;;;;;;;17.95;11.60;;;;;;;16.15;100.00;99693.44;5072506;28;20036;-72
2022/09/30 02:31:22;;;;;;;13.98;11.05;;;;;;;16.23;100.00;99713.53;5071123;28;20126;-73
2022/09/30 02:34:12;;;;;;;18.67;10.68;;;;;;;15.81;100.00;99700.47;5070910;28;20063;-73
2022/09/30 02:36:52;;;;;;;13.05;10.48;;;;;;;16.09;100.00;99734.00;5071236;28;20032;-72
2022/09/30 02:39:52;;;;;;;15.20;11.10;;;;;;;16.48;100.00;99760.00;5072434;28;20120;-73
2022/09/30 02:42:23;;;;;;;17.05;10.90;;;;;;;15.93;100.00;99707.53;5060346;28;20040;-73
2022/09/30 02:44:51;;;;;;;16.90;11.05;;;;;;;16.01;100.00;99751.53;5072156;28;20035;-72
2022/09/30 02:47:27;;;;;;;13.40;10.30;;;;;;;16.04;100.00;99718.03;5071793;28;20067;-73
2022/09/30 02:50:13;;;;;;;12.85;10.38;;;;;;;16.41;100.00;99756.16;5071122;28;20088;-73
2022/09/30 02:52:47;;;;;;;14.38;10.95;;;;;;;16.40;100.00;99763.00;5072252;28;20039;-72
2022/09/30 02:55:32;;;;;;;14.82;10.85;;;;;;;16.44;100.00;99755.97;5072163;28;20142;-73
2022/09/30 02:58:07;;;;;;;12.80;10.73;;;;;;;16.06;100.00;99754.69;5070118;28;20043;-74
2022/09/30 03:00:33;;;;;;;12.88;11.25;;;;;;;16.06;100.00;99737.56;5071807;28;20043;-73
2022/09/30 03:03:05;;;;;;;17.13;12.55;;;;;;;16.30;100.00;99728.50;5070254;28;20020;-72
2022/09/30 03:05:31;;;;;;;20.30;12.30;;;;;;;15.96;100.00;99691.97;5070232;28;20115;-74
2022/09/30 03:07:56;;;;;;;15.00;11.57;;;;;;;16.30;100.00;99731.06;5070384;28;20559;-73
2022/09/30 03:10:23;;;;;;;13.75;10.93;;;;;;;15.97;100.00;99683.38;5071525;28;20536;-74
2022/09/30 03:13:04;;;;;;;13.25;10.80;;;;;;;16.44;100.00;99758.53;5070375;28;20067;-72
2022/09/30 03:15:32;;;;;;;12.05;10.75;;;;;;;16.73;100.00;99772.34;5070305;28;20037;-72
2022/09/30 03:18:13;;;;;;;14.25;10.27;;;;;;;16.21;100.00;99716.19;5071441;28;20162;-70
2022/09/30 03:20:51;;;;;;;15.10;10.18;;;;;;;17.21;100.00;99754.13;5070023;28;20502;-73
2022/09/30 03:23:20;;;;;;;13.38;10.27;;;;;;;16.31;100.00;99760.13;5070897;28;20051;-71
2022/09/30 03:25:58;;;;;;;13.05;10.38;;;;;;;16.35;100.00;99769.31;5069164;28;20499;-72
2022/09/30 03:28:34;;;;;;;12.38;10.07;;;;;;;16.47;100.00;99758.38;5061188;28;20061;-74
2022/09/30 03:31:15;;;;;;;10.90;9.80;;;;;;;16.61;100.00;99753.34;5069801;28;20024;-74
2022/09/30 03:33:48;;;;;;;15.35;10.25;;;;;;;16.76;100.00;99762.72;5069723;28;20513;-71
2022/09/30 03:36:15;;;;;;;11.40;10.20;;;;;;;16.20;100.00;99693.22;5069271;28;20036;-73
2022/09/30 03:38:55;;;;;;;12.98;10.55;;;;;;;16.67;100.00;99762.44;5071167;28;20040;-71
2022/09/30 03:41:33;;;;;;;14.35;10.60;;;;;;;16.74;100.00;99769.69;5070955;28;20082;-70
2022/09/30 03:44:10;;;;;;;13.07;11.07;;;;;;;16.47;100.00;99715.59;5070603;28;20411;-72
2022/09/30 03:46:41;;;;;;;13.23;10.90;;;;;;;16.74;100.00;99779.97;5069045;28;20031;-72
2022/09/30 03:49:13;;;;;;;14.55;11.40;;;;;;;16.16;100.00;99678.91;5070147;28;20483;-72
2022/09/30 03:51:42;;;;;;;14.98;11.75;;;;;;;16.32;100.00;99756.66;5069499;28;20028;-71
2022/09/30 03:54:22;;;;;;;13.77;11.23;;;;;;;16.23;100.00;99781.06;5070048;28;20074;-71
2022/09/30 03:56:48;;;;;;;12.45;11.15;;;;;;;16.04;100.00;99777.03;5069457;28;20075;-72
2022/09/30 03:59:26;;;;;;;17.10;10.93;;;;;;;15.86;100.00;99789.09;5070835;28;20052;-74
2022/09/30 04:01:52;;;;;;;11.75;10.20;;;;;;;15.70;100.00;99736.13;5070886;28;20111;-72
2022/09/30 04:04:18;;;;;;;16.38;10.43;;;;;;;16.18;100.00;99795.06;5069993;28;20059;-71
2022/09/30 04:06:43;;;;;;;16.65;10.68;;;;;;;15.86;100.00;99742.94;5072504;28;20546;-72
2022/09/30 04:09:09;;;;;;;16.48;10.75;;;;;;;16.01;100.00;99757.50;5075077;28;20119;-71
2022/09/30 04:11:34;;;;;;;16.15;11.38;;;;;;;16.39;100.00;99730.56;5075078;28;20032;-71
2022/09/30 04:14:04;;;;;;;23.27;11.23;;;;;;;15.79;100.00;99727.94;5074831;28;20029;-69
2022/09/30 04:16:29;;;;;;;14.57;10.45;;;;;;;15.56;100.00;99801.75;5073593;28;20028;-69
2022/09/30 04:18:55;;;;;;;13.57;9.93;;;;;;;15.78;100.00;99786.09;5073585;28;20032;-70
2022/09/30 04:21:22;;;;;;;13.18;10.50;;;;;;;15.30;100.00;99696.34;5075157;28;20035;-71
2022/09/30 04:23:48;;;;;;;15.65;10.57;;;;;;;16.06;100.00;99782.91;5074562;28;20086;-70
2022/09/30 04:26:18;;;;;;;13.55;10.30;;;;;;;16.50;100.00;99791.59;5075392;28;20033;-72
2022/09/30 04:28:44;;;;;;;16.88;10.85;;;;;;;15.64;100.00;99739.84;5074445;28;20039;-70
2022/09/30 04:31:11;;;;;;;20.23;11.77;;;;;;;15.35;100.00;99774.59;5075132;28;20028;-71
2022/09/30 04:33:37;;;;;;;17.58;11.77;;;;;;;15.42;100.00;99780.28;5074782;28;20112;-70
2022/09/30 04:36:03;;;;;;;14.57;10.73;;;;;;;15.38;100.00;99791.56;5074683;28;20092;-71
2022/09/30 04:38:29;;;;;;;18.88;10.88;;;;;;;15.59;100.00;99752.06;5074853;28;20549;-70
2022/09/30 04:40:55;;;;;;;19.52;11.23;;;;;;;15.40;100.00;99741.09;5074876;28;20059;-72
2022/09/30 04:43:22;;;;;;;16.50;11.38;;;;;;;15.56;100.00;99773.56;5093518;28;20097;-71
2022/09/30 04:45:49;;;;;;;14.63;10.15;;;;;;;15.97;100.00;99822.66;5094679;28;20024;-72
2022/09/30 04:48:15;;;;;;;18.75;10.77;;;;;;;16.00;100.00;99765.28;5094210;28;20039;-73
2022/09/30 04:50:41;;;;;;;16.25;9.90;;;;;;;16.22;100.00;99776.84;5093523;28;20028;-71
2022/09/30 04:53:13;;;;;;;13.40;10.68;;;;;;;16.29;100.00;99818.41;5094491;28;20490;-71
2022/09/30 04:55:38;;;;;;;14.88;9.70;;;;;;;17.03;100.00;99778.31;5093289;28;20067;-70
2022/09/30 04:58:04;;;;;;;15.73;10.13;;;;;;;19.30;100.00;99853.38;5093303;28;20130;-70
2022/09/30 05:00:29;;;;;;;12.57;10.43;;;;;;;19.69;100.00;99837.00;5094146;28;20110;-72
2022/09/30 05:02:55;;;;;;;14.20;9.40;;;;;;;20.55;100.00;99820.66;5092773;28;20512;-71
2022/09/30 05:05:21;;;;;;;14.73;10.25;;;;;;;20.68;100.00;99862.75;5093019;28;20039;-72
2022/09/30 05:07:46;;;;;;;14.05;10.07;;;;;;;20.61;100.00;99839.13;5093995;28;20032;-71
2022/09/30 05:10:12;;;;;;;12.20;8.93;;;;;;;20.85;100.00;99789.19;5092929;28;20028;-71
2022/09/30 05:12:39;;;;;;;14.25;9.45;;;;;;;20.53;100.00;99776.03;5092871;28;20139;-71
2022/09/30 05:15:06;;;;;;;14.65;9.30;;;;;;;20.86;100.00;99876.16;5093009;28;20402;-71
2022/09/30 05:17:31;;;;;;;13.40;9.02;;;;;;;19.36;100.00;99828.97;5109527;28;20024;-71
2022/09/30 05:19:57;;;;;;;14.20;9.13;;;;;;;18.94;100.00;99890.06;5093729;28;20036;-72
2022/09/30 05:22:23;;;;;;;20.85;12.82;;;;;;;18.73;100.00;99894.03;5092939;28;20056;-71
2022/09/30 05:24:52;;;;;;;16.30;12.90;;;;;;;18.08;100.00;99796.84;5094164;28;20414;-71
2022/09/30 05:27:19;;;;;;;16.15;11.77;;;;;;;18.73;100.00;99857.13;5093477;28;20036;-71
2022/09/30 05:29:44;;;;;;;21.70;13.00;;;;;;;18.64;100.00;99871.41;5109797;28;20036;-71
2022/09/30 05:32:10;;;;;;;15.05;10.35;;;;;;;19.20;100.00;99906.44;5092380;28;20387;-72
2022/09/30 05:34:37;;;;;;;16.20;11.18;;;;;;;19.33;100.00;99883.31;5093869;28;20406;-72
2022/09/30 05:37:04;;;;;;;17.27;10.85;;;;;;;17.98;100.00;99772.59;5092569;28;20138;-71
2022/09/30 05:39:29;;;;;;;15.68;9.85;;;;;;;18.95;100.00;99860.81;5093902;28;20486;-70
2022/09/30 05:41:58;;;;;;;18.02;9.70;;;;;;;19.09;100.00;99882.28;5109461;28;20070;-70
2022/09/30 05:44:24;;;;;;;15.75;8.73;;;;;;;19.22;100.00;99865.94;5092084;28;20101;-69
2022/09/30 05:46:49;;;;;;;19.52;8.77;;;;;;;19.09;100.00;99883.13;5093341;28;20027;-71
2022/09/30 05:49:15;;;;;;;15.88;9.65;;;;;;;19.03;100.00;99850.81;5093556;28;20039;-70
2022/09/30 05:51:41;;;;;;;13.38;8.40;;;;;;;19.35;100.00;99827.31;5091982;28;20114;-70
2022/09/30 05:54:06;;;;;;;15.60;8.52;;;;;;;19.48;100.00;99823.81;5091985;28;20032;-72
2022/09/30 05:56:33;;;;;;;15.60;8.38;;;;;;;20.43;100.00;99917.94;5093198;28;20036;-71
2022/09/30 05:58:59;;;;;;;10.82;8.90;;;;;;;20.27;100.00;99898.41;5093393;28;20073;-71
2022/09/30 06:01:25;;;;;;;14.93;9.30;;;;;;;19.58;100.00;99858.38;5093398;28;20743;-71
2022/09/30 06:03:50;;;;;;;13.90;8.95;;;;;;;20.12;100.00;99856.41;5091963;28;20558;-72
2022/09/30 06:06:17;;;;;;;11.73;8.52;;;;;;;19.60;100.00;99863.44;5091831;28;20035;-71
2022/09/30 06:08:47;;;;;;;13.95;8.25;;;;;;;20.24;100.00;99933.06;5092105;28;20504;-72
2022/09/30 06:11:15;;;;;;;10.20;7.25;;;;;;;20.73;100.00;99935.63;5093128;28;20035;-71
2022/09/30 06:13:41;;;;;;;11.75;7.90;;;;;;;19.89;100.00;99854.53;5093194;28;20437;-71
2022/09/30 06:16:08;;;;;;;10.73;8.02;;;;;;;20.73;100.00;99891.69;5093023;28;20039;-71
2022/09/30 06:18:35;;;;;;;9.90;7.70;;;;;;;21.28;100.00;99906.66;5092829;28;20036;-71
2022/09/30 06:21:03;;;;;;;11.55;8.05;;;;;;;21.41;100.00;99941.88;5092937;28;20036;-71
2022/09/30 06:23:30;;;;;;;10.40;7.60;;;;;;;21.65;100.00;99934.06;5092662;28;20031;-72
2022/09/30 06:25:56;;;;;;;13.95;7.68;;;;;;;21.48;100.00;99891.34;5091417;28;20489;-71
2022/09/30 06:28:22;;;;;;;12.15;6.95;;;;;;;21.77;100.00;99871.03;5091263;28;20039;-72
2022/09/30 06:30:48;;;;;;;12.73;6.68;;;;;;;22.05;100.00;99943.13;5092579;28;20038;-71
2022/09/30 06:33:14;;;;;;;11.60;6.65;;;;;;;21.91;100.00;99917.44;5091087;28;20032;-71
2022/09/30 06:35:41;;;;;;;14.20;7.60;;;;;;;22.44;100.00;99937.47;5090887;28;20026;-70
2022/09/30 06:38:07;;;;;;;18.88;10.45;;;;;;;22.07;100.00;99889.44;5091293;28;20020;-71
2022/09/30 06:40:33;;;;;;;15.38;8.35;;;;;;;22.61;100.00;99956.09;5092864;28;20107;-71
2022/09/30 06:42:59;;;;;;;11.25;8.27;;;;;;;22.96;100.00;99965.38;5090715;28;20508;-70
2022/09/30 06:45:26;;;;;;;11.45;7.53;;;;;;;22.01;100.00;99909.78;5092265;28;20410;-71
2022/09/30 06:47:59;;;;;;;15.50;8.50;;;;;;;22.99;100.00;99920.22;5092453;28;20034;-70
2022/09/30 06:50:24;;;;;;;7.82;6.78;;;;;;;22.97;100.00;99963.59;5090707;28;20047;-71
2022/09/30 06:52:50;;;;;;;10.10;6.93;;;;;;;23.46;100.00;99963.09;5090809;28;20032;-70
2022/09/30 06:55:19;;;;;;;13.52;6.68;;;;;;;23.34;100.00;99948.53;5090971;28;20028;-71
2022/09/30 06:57:46;;;;;;;7.40;5.97;;;;;;;22.60;100.00;99908.63;5090878;28;20493;-69
2022/09/30 07:00:13;;;;;;;11.35;6.28;;;;;;;23.68;100.00;99960.41;5090710;28;20024;-70
2022/09/30 07:02:38;;;;;;;13.32;6.43;;;;;;;23.01;100.00;99874.22;5092019;28;20059;-70
2022/09/30 07:05:04;;;;;;;10.48;6.90;;;;;;;23.66;100.00;99955.34;5092133;28;20059;-71
2022/09/30 07:07:32;;;;;;;15.25;6.97;;;;;;;23.79;100.00;99935.19;5091407;28;20028;-70
2022/09/30 07:09:57;;;;;;;12.15;6.45;;;;;;;24.00;100.00;99891.00;5090871;28;20055;-71
2022/09/30 07:12:23;;;;;;;12.52;6.53;;;;;;;24.12;100.00;99977.53;5091490;28;20491;-70
2022/09/30 07:14:50;;;;;;;18.10;9.60;;;;;;;24.57;100.00;99973.63;5090706;28;20127;-71
2022/09/30 07:17:15;;;;;;;9.60;6.85;;;;;;;24.48;100.00;99970.03;5107345;28;20039;-70
2022/09/30 07:19:40;;;;;;;7.10;5.93;;;;;;;24.17;100.00;99954.56;5091658;28;20032;-70
2022/09/30 07:24:50;;;;;;;11.43;6.28;;;;;;;24.99;100.00;99969.94;5091685;28;20143;-72
2022/09/30 07:27:15;;;;;;;9.93;5.60;;;;;;;24.93;100.00;99983.47;5090235;28;20127;-73
2022/09/30 07:29:41;;;;;;;9.05;5.30;;;;;;;25.24;100.00;99938.19;5091897;28;20023;-71
2022/09/30 07:32:07;;;;;;;9.18;4.97;;;;;;;24.21;100.00;99929.97;5090307;28;20560;-72
2022/09/30 07:34:34;;;;;;;10.15;4.80;;;;;;;24.85;100.00;99978.13;5090466;28;20035;-71
2022/09/30 07:37:00;;;;;;;7.72;4.90;;;;;;;24.73;100.00;99993.03;5107208;28;20125;-73
2022/09/30 07:39:25;;;;;;;11.23;5.43;;;;;;;25.34;100.00;99931.19;5091583;28;20028;-71
2022/09/30 07:41:52;;;;;;;7.55;4.55;;;;;;;24.34;100.00;99938.38;5090735;28;20039;-71
2022/09/30 07:44:18;;;;;;;13.50;4.65;;;;;;;25.11;100.00;99965.44;5091362;28;20035;-71
2022/09/30 07:46:44;;;;;;;11.00;5.00;;;;;;;23.95;100.00;99961.53;5090163;28;20032;-71
2022/09/30 07:49:13;;;;;;;10.93;4.82;;;;;;;24.47;100.00;99997.00;5091051;28;20031;-71
2022/09/30 07:51:43;;;;;;;10.18;4.88;;;;;;;24.69;100.00;99977.78;5090282;28;20111;-71
2022/09/30 07:54:14;;;;;;;8.07;5.05;;;;;;;24.79;100.00;99917.06;5091388;28;20062;-71
2022/09/30 07:56:42;;;;;;;8.23;4.70;;;;;;;24.40;100.00;100013.25;5091308;28;20056;-72
2022/09/30 07:59:09;;;;;;;10.30;4.80;;;;;;;25.77;100.00;99999.31;5091706;28;20032;-70
2022/09/30 08:01:35;;;;;;;8.48;4.72;;;;;;;25.84;100.00;100010.00;5106963;28;20084;-70
2022/09/30 08:04:02;;;;;;;9.30;4.05;;;;;;;25.59;100.00;100011.38;5091164;28;20028;-70
2022/09/30 08:06:29;;;;;;;7.55;4.22;;;;;;;25.68;100.00;99963.69;5091330;28;20020;-70
2022/09/30 08:08:57;;;;;;;8.30;4.15;;;;;;;25.29;100.00;99904.75;5090100;28;20062;-70
2022/09/30 08:11:23;;;;;;;11.07;4.32;;;;;;;24.69;100.00;99957.78;5091192;28;20456;-71
2022/09/30 08:13:53;;;;;;;8.07;3.53;;;;;;;26.14;100.00;100003.81;5089905;28;20478;-71
2022/09/30 08:16:19;;;;;;;14.63;3.90;;;;;;;26.02;100.00;99969.25;5091173;28;20100;-70
2022/09/30 08:18:45;;;;;;;9.75;3.70;;;;;;;26.77;100.00;100005.66;5090829;28;20035;-73
2022/09/30 08:21:11;;;;;;;7.72;3.90;;;;;;;25.54;100.00;99956.28;5089666;28;20478;-70
2022/09/30 08:23:36;;;;;;;6.85;3.53;;;;;;;26.69;100.00;99995.09;5091069;28;20055;-71
2022/09/30 08:26:07;;;;;;;6.50;3.38;;;;;;;26.65;100.00;100006.78;5090000;28;20028;-72
2022/09/30 08:28:34;;;;;;;5.35;3.58;;;;;;;26.13;100.00;99957.84;5089610;28;20024;-71
2022/09/30 08:31:17;;;;;;;7.60;3.50;;;;;;;26.82;100.00;100013.06;5091276;28;20036;-71
2022/09/30 08:33:43;;;;;;;6.95;3.40;;;;;;;26.71;100.00;100029.72;5089553;28;20036;-70
2022/09/30 08:36:21;;;;;;;6.35;3.30;;;;;;;26.74;100.00;99984.25;5090667;28;20110;-71
2022/09/30 08:38:46;;;;;;;8.57;3.50;;;;;;;26.92;100.00;100019.84;5091031;28;20404;-71
2022/09/30 08:41:18;;;;;;;8.13;3.30;;;;;;;26.14;100.00;100033.31;5089550;28;20028;-71
2022/09/30 08:43:52;;;;;;;;;;;;;;;27.24;100.00;100030.66;5107041;28;20039;-70
2022/09/30 08:46:33;;;;;;;6.45;3.40;;;;;;;27.29;100.00;100038.91;5106547;28;20295;-70
2022/09/30 08:49:09;;;;;;;;;;;;;;;27.28;100.00;100028.56;5107189;28;20390;-70
2022/09/30 08:51:41;;;;;;;8.25;3.10;;;;;;;26.13;100.00;100020.41;5089482;28;20579;-70
2022/09/30 08:54:12;;;;;;;6.65;3.28;;;;;;;27.07;100.00;99975.81;5093183;28;20478;-71
2022/09/30 08:56:38;;;;;;;;;;;;;;;27.28;100.00;100032.00;5095087;28;20028;-70
2022/09/30 08:59:27;;;;;;;10.07;3.43;;;;;;;27.76;100.00;100026.44;5093382;28;19918;-71
2022/09/30 09:02:01;;;;;;;9.43;3.67;;;;;;;27.34;100.00;99973.16;5093268;28;20285;-71
2022/09/30 09:04:26;;;;;;;9.43;3.90;;;;;;;27.19;100.00;99985.06;5092905;28;20024;-71
2022/09/30 09:06:55;;;;;;;8.63;3.10;;;;;;;27.31;100.00;100044.78;5109393;28;20538;-73
2022/09/30 09:09:28;;;;;;;6.85;3.15;;;;;;;27.44;100.00;100031.38;5110046;28;20032;-70
2022/09/30 09:12:21;;;;;;;7.97;3.60;;;;;;;27.79;100.00;100027.94;5110159;28;20189;-70
2022/09/30 09:15:08;;;;;;;10.88;3.60;;;;;;;26.58;100.00;99990.09;5094161;28;20027;-71
2022/09/30 09:17:33;;;;;;;10.40;3.95;;;;;;;27.40;100.00;99978.63;5092864;28;20573;-71
2022/09/30 09:20:08;;;;;;;9.50;3.55;;;;;;;27.15;100.00;100031.56;5110142;28;20119;-71
2022/09/30 09:22:37;;;;;;;11.80;3.47;;;;;;;27.88;100.00;99982.56;5094479;28;20062;-70
2022/09/30 09:25:03;;;;;;;10.52;3.70;;;;;;;28.63;100.00;100011.53;5094207;28;20048;-71
2022/09/30 09:27:47;;;;;;;10.57;3.67;;;;;;;27.56;100.00;99951.78;5094528;28;20039;-70
2022/09/30 09:30:17;;;;;;;7.57;3.63;;;;;;;27.42;100.00;99966.22;5109765;28;20053;-72
2022/09/30 09:32:50;;;;;;;11.15;3.50;;;;;;;28.21;100.00;100023.69;5094196;28;20028;-70
2022/09/30 09:35:30;;;;;;;5.07;3.60;;;;;;;27.67;100.00;100019.53;5094099;28;20089;-73
2022/09/30 09:38:23;;;;;;;10.27;3.92;;;;;;;27.90;100.00;100022.47;5093943;28;20457;-71
2022/09/30 09:41:50;;;;;;;6.60;3.65;;;;;;;28.49;100.00;100019.94;5093955;28;20024;-72
2022/09/30 09:44:32;;;;;;;8.35;3.63;;;;;;;29.39;96.07;100016.69;4989441;28;20061;-72
2022/09/30 09:47:12;;;;;;;11.15;3.80;;;;;;;28.76;97.67;100024.97;5073094;28;20457;-73
2022/09/30 09:49:41;;;;;;;8.67;3.07;;;;;;;28.91;92.17;99988.53;5073478;28;20097;-74
2022/09/30 09:52:12;;;;;;;13.05;5.32;;;;;;;28.39;99.18;100040.16;5073204;28;20033;-72
2022/09/30 09:54:46;;;;;;;;;;;;;;;29.49;87.16;100025.22;5089258;28;20501;-72
2022/09/30 09:57:23;;;;;;;11.00;2.75;;;;;;;28.82;86.81;99958.88;5073063;28;19966;-71
2022/09/30 10:03:26;;;;;;;6.18;2.70;;;;;;;28.61;86.06;99976.00;5047864;28;20051;-75
2022/09/30 10:06:03;;;;;;;7.07;3.20;;;;;;;30.10;78.59;100020.28;5071395;28;20043;-71
2022/09/30 10:08:33;;;;;;;4.43;2.53;;;;;;;28.77;84.49;99969.03;5088491;28;20033;-72
2022/09/30 10:11:16;;;;;;;7.13;3.10;;;;;;;29.50;79.67;99916.75;5073085;28;20025;-73
2022/09/30 10:13:44;;;;;;;6.40;2.60;;;;;;;29.51;78.13;100004.88;5072713;28;20035;-73
2022/09/30 10:16:36;;;;;;;5.18;2.80;;;;;;;29.86;80.51;100022.94;5088151;28;20025;-71
2022/09/30 10:19:04;;;;;;;3.58;2.70;;;;;;;30.50;70.94;100016.78;5084661;28;20032;-71
2022/09/30 10:21:30;;;;;;;7.13;2.70;;;;;;;29.62;75.46;100007.19;5072741;28;20036;-74
2022/09/30 10:23:56;;;;;;;4.15;2.47;;;;;;;30.31;73.34;100009.28;5072914;28;20501;-72
2022/09/30 10:26:24;;;;;;;5.70;2.63;;;;;;;29.76;71.96;99970.66;5071401;28;20040;-70
2022/09/30 10:28:58;;;;;;;9.18;2.70;;;;;;;29.75;73.51;100000.47;5087413;28;20033;-71
2022/09/30 10:31:33;;;;;;;5.78;2.63;;;;;;;30.25;70.79;100023.88;5071907;28;20102;-71
2022/09/30 10:34:03;;;;;;;4.78;2.60;;;;;;;29.63;72.10;99961.63;5070864;28;20081;-71
2022/09/30 10:36:32;;;;;;;4.47;2.70;;;;;;;29.67;68.71;99945.41;5087829;28;20123;-71
2022/09/30 10:39:01;;;;;;;5.43;2.90;;;;;;;30.31;72.00;99983.03;5072445;28;20116;-71
2022/09/30 10:41:30;;;;;;;5.07;2.83;;;;;;;30.79;66.58;99996.81;5072420;28;20067;-70
2022/09/30 10:44:01;;;;;;;3.33;2.60;;;;;;;29.47;71.27;99909.22;5071866;28;20028;-71
2022/09/30 10:46:31;;;;;;;7.78;3.00;;;;;;;30.62;68.07;99995.22;5071026;28;20483;-71
2022/09/30 10:48:58;;;;;;;4.53;2.50;;;;;;;29.85;67.57;99945.25;5070948;28;20422;-72
2022/09/30 10:51:32;;;;;;;8.23;3.00;;;;;;;30.40;65.60;99951.38;5087592;28;20475;-71
2022/09/30 10:53:58;;;;;;;7.50;2.92;;;;;;;29.70;65.82;99983.59;5071981;28;20024;-71
2022/09/30 10:56:39;;;;;;;5.97;2.70;;;;;;;29.16;72.89;99992.09;5072022;28;20468;-71
2022/09/30 10:59:18;;;;;;;6.32;2.60;;;;;;;30.70;65.67;99997.81;5087657;28;20028;-71
2022/09/30 11:01:58;;;;;;;6.65;2.45;;;;;;;30.48;60.40;99940.81;5070556;28;20024;-71
2022/09/30 11:04:35;;;;;;;7.38;2.92;;;;;;;31.03;62.73;99993.25;5071987;28;20078;-71
2022/09/30 11:07:20;;;;;;;10.80;3.33;;;;;;;31.05;59.27;99951.03;5070465;28;20838;-71
2022/09/30 11:10:02;;;;;;;5.72;2.60;;;;;;;30.47;57.35;99998.72;5071965;28;20032;-72
2022/09/30 11:12:38;;;;;;;3.53;3.00;;;;;;;29.75;59.76;99937.56;5071615;28;20060;-71
2022/09/30 11:15:12;;;;;;;4.63;2.70;;;;;;;31.26;54.48;99988.81;5071371;28;20020;-71
2022/09/30 11:17:47;;;;;;;7.32;3.30;;;;;;;30.45;58.98;99993.66;5087459;28;20127;-71
2022/09/30 11:20:21;;;;;;;5.10;2.70;;;;;;;30.78;55.99;100000.41;5071588;28;20209;-73
2022/09/30 11:23:18;;;;;;;4.63;3.00;;;;;;;31.07;54.15;99998.97;5087401;28;20032;-72
2022/09/30 11:26:10;;;;;;;7.25;3.05;;;;;;;30.91;53.16;99993.81;5071820;28;20040;-71
2022/09/30 11:28:58;;;;;;;4.50;2.83;;;;;;;30.66;51.47;99985.22;5071357;28;20032;-70
2022/09/30 11:31:40;;;;;;;4.53;2.88;;;;;;;31.56;50.07;100002.91;5071562;28;20024;-71
2022/09/30 11:34:38;;;;;;;4.47;2.70;;;;;;;31.57;49.03;99988.78;5071388;28;20016;-70
2022/09/30 11:37:31;;;;;;;4.75;2.88;;;;;;;31.86;48.27;99980.97;5070054;28;20060;-71
2022/09/30 11:40:26;;;;;;;5.40;2.78;;;;;;;31.11;48.81;99953.78;5071280;28;20024;-71
2022/09/30 11:43:17;;;;;;;6.10;2.92;;;;;;;31.35;48.10;99939.63;5071502;28;20047;-71
2022/09/30 11:45:55;;;;;;;6.28;2.92;;;;;;;31.81;47.67;99970.16;5070146;28;20055;-71